Current Weather

Wajir

Wajir, Kenya (HKWJ)

Report from: Tuesday, February 27, 2024 12:00 PM EAT
Current time: Tuesday, February 27, 2024 1:01 PM EAT

Nearby weather – Weather history – Daily summaries
Weather forecast

Temperature35.0°C (95.0°F)
Heat index38.6°C (101.5°F)
Dew point21.0°C (69.8°F)
Winds 6 kts (3.1 m/s, 6.9 mph) Southeast (140°)
Visibility6.2 mi. (10 km)
Clouds Few clouds 3,500 ft. (1,067 m)
Altimeter29.77 in.Hg (1008 mB)
Relative humidity44 %
Density altitude2,781 ft. (848 m)
Flight conditions Visual Meteorological Conditions
Raw dataHKWJ 270900Z 14006KT 9999 FEW035 35/21 Q1008
An error has occurred. This application may no longer respond until reloaded. Reload 🗙